sensor_id;sensor_type;location;lat;lon;timestamp;pressure;altitude;pressure_sealevel;temperature;humidity
44075;BME280;60448;44.956;7.660;2023-08-12T00:00:00;99370;;;30.7;47.1
44075;BME280;60448;44.956;7.660;2023-08-12T00:05:00;99370;;;30.7;47.1
44075;BME280;60448;44.956;7.660;2023-08-12T00:10:01;99370;;;30.7;47.1
44075;BME280;60448;44.956;7.660;2023-08-12T00:15:00;99370;;;30.8;46.9
44075;BME280;60448;44.956;7.660;2023-08-12T00:20:00;99370;;;30.8;46.9
44075;BME280;60448;44.956;7.660;2023-08-12T00:25:00;99370;;;30.8;46.9
44075;BME280;60448;44.956;7.660;2023-08-12T00:30:00;99370;;;30.8;47.0
44075;BME280;60448;44.956;7.660;2023-08-12T00:35:00;99370;;;30.8;47.0
44075;BME280;60448;44.956;7.660;2023-08-12T00:40:00;99370;;;30.8;47.0
44075;BME280;60448;44.956;7.660;2023-08-12T00:45:00;99360;;;30.8;47.0
44075;BME280;60448;44.956;7.660;2023-08-12T00:50:00;99360;;;30.8;47.0
44075;BME280;60448;44.956;7.660;2023-08-12T00:55:00;99360;;;30.8;47.0
44075;BME280;60448;44.956;7.660;2023-08-12T01:00:00;99370;;;30.7;47.1
44075;BME280;60448;44.956;7.660;2023-08-12T01:05:00;99370;;;30.7;47.0
44075;BME280;60448;44.956;7.660;2023-08-12T01:10:00;99370;;;30.7;47.0
44075;BME280;60448;44.956;7.660;2023-08-12T01:15:03;99370;;;30.7;47.0
44075;BME280;60448;44.956;7.660;2023-08-12T01:20:00;99360;;;30.7;46.8
44075;BME280;60448;44.956;7.660;2023-08-12T01:25:00;99360;;;30.7;46.8
44075;BME280;60448;44.956;7.660;2023-08-12T01:30:00;99360;;;30.7;46.8
44075;BME280;60448;44.956;7.660;2023-08-12T01:35:01;99350;;;30.7;47.0
44075;BME280;60448;44.956;7.660;2023-08-12T01:40:00;99350;;;30.7;47.0
44075;BME280;60448;44.956;7.660;2023-08-12T01:45:00;99350;;;30.7;47.0
44075;BME280;60448;44.956;7.660;2023-08-12T01:50:00;99350;;;30.7;47.1
44075;BME280;60448;44.956;7.660;2023-08-12T01:55:00;99350;;;30.7;47.1
44075;BME280;60448;44.956;7.660;2023-08-12T02:00:01;99350;;;30.7;47.1
44075;BME280;60448;44.956;7.660;2023-08-12T02:05:00;99340;;;30.6;46.9
44075;BME280;60448;44.956;7.660;2023-08-12T02:10:00;99340;;;30.6;46.9
44075;BME280;60448;44.956;7.660;2023-08-12T02:15:00;99340;;;30.6;46.9
44075;BME280;60448;44.956;7.660;2023-08-12T02:20:00;99350;;;30.6;46.7
44075;BME280;60448;44.956;7.660;2023-08-12T02:25:00;99340;;;30.6;46.7
44075;BME280;60448;44.956;7.660;2023-08-12T02:30:00;99340;;;30.6;46.7
44075;BME280;60448;44.956;7.660;2023-08-12T02:35:00;99350;;;30.6;46.8
44075;BME280;60448;44.956;7.660;2023-08-12T02:40:00;99350;;;30.6;46.8
44075;BME280;60448;44.956;7.660;2023-08-12T02:45:00;99350;;;30.6;46.8
44075;BME280;60448;44.956;7.660;2023-08-12T02:50:00;99350;;;30.6;46.8
44075;BME280;60448;44.956;7.660;2023-08-12T02:55:00;99340;;;30.6;46.8
44075;BME280;60448;44.956;7.660;2023-08-12T03:00:00;99340;;;30.6;46.8
44075;BME280;60448;44.956;7.660;2023-08-12T03:05:00;99340;;;30.6;46.8
44075;BME280;60448;44.956;7.660;2023-08-12T03:10:00;99340;;;30.6;46.8
44075;BME280;60448;44.956;7.660;2023-08-12T03:15:00;99340;;;30.6;46.8
44075;BME280;60448;44.956;7.660;2023-08-12T03:20:00;99340;;;30.6;46.8
44075;BME280;60448;44.956;7.660;2023-08-12T03:25:00;99330;;;30.5;46.8
44075;BME280;60448;44.956;7.660;2023-08-12T03:30:00;99330;;;30.5;46.8
44075;BME280;60448;44.956;7.660;2023-08-12T03:35:00;99330;;;30.5;46.8
44075;BME280;60448;44.956;7.660;2023-08-12T03:40:00;99320;;;30.5;46.9
44075;BME280;60448;44.956;7.660;2023-08-12T03:45:00;99320;;;30.5;46.9
44075;BME280;60448;44.956;7.660;2023-08-12T03:50:00;99320;;;30.5;46.9
44075;BME280;60448;44.956;7.660;2023-08-12T03:55:00;99330;;;30.5;46.9
44075;BME280;60448;44.956;7.660;2023-08-12T04:00:00;99330;;;30.5;47.0
44075;BME280;60448;44.956;7.660;2023-08-12T04:05:00;99330;;;30.5;47.0
44075;BME280;60448;44.956;7.660;2023-08-12T04:10:00;99330;;;30.5;47.0
44075;BME280;60448;44.956;7.660;2023-08-12T04:15:00;99330;;;30.5;46.9
44075;BME280;60448;44.956;7.660;2023-08-12T04:20:00;99330;;;30.5;46.9
44075;BME280;60448;44.956;7.660;2023-08-12T04:25:00;99330;;;30.5;46.9
44075;BME280;60448;44.956;7.660;2023-08-12T04:30:00;99340;;;30.4;46.8
44075;BME280;60448;44.956;7.660;2023-08-12T04:35:00;99340;;;30.4;46.8
44075;BME280;60448;44.956;7.660;2023-08-12T04:40:00;99340;;;30.4;46.8
44075;BME280;60448;44.956;7.660;2023-08-12T04:45:00;99330;;;30.4;46.9
44075;BME280;60448;44.956;7.660;2023-08-12T04:50:00;99330;;;30.4;46.9
44075;BME280;60448;44.956;7.660;2023-08-12T04:55:00;99330;;;30.4;46.9
44075;BME280;60448;44.956;7.660;2023-08-12T05:00:00;99330;;;30.4;46.9
44075;BME280;60448;44.956;7.660;2023-08-12T05:05:00;99330;;;30.4;46.9
44075;BME280;60448;44.956;7.660;2023-08-12T05:10:00;99330;;;30.4;46.9
44075;BME280;60448;44.956;7.660;2023-08-12T05:15:00;99330;;;30.4;46.9
44075;BME280;60448;44.956;7.660;2023-08-12T05:20:00;99330;;;30.3;46.8
44075;BME280;60448;44.956;7.660;2023-08-12T05:25:00;99330;;;30.3;46.8
44075;BME280;60448;44.956;7.660;2023-08-12T05:30:00;99330;;;30.3;46.8
44075;BME280;60448;44.956;7.660;2023-08-12T05:35:00;99340;;;30.3;46.8
44075;BME280;60448;44.956;7.660;2023-08-12T05:40:00;99340;;;30.3;46.8
44075;BME280;60448;44.956;7.660;2023-08-12T05:45:00;99340;;;30.3;46.8
44075;BME280;60448;44.956;7.660;2023-08-12T05:50:00;99340;;;30.3;46.8
44075;BME280;60448;44.956;7.660;2023-08-12T05:55:00;99340;;;30.3;46.8
44075;BME280;60448;44.956;7.660;2023-08-12T06:00:00;99340;;;30.3;46.8
44075;BME280;60448;44.956;7.660;2023-08-12T06:05:00;99350;;;30.3;46.9
44075;BME280;60448;44.956;7.660;2023-08-12T06:10:00;99350;;;30.3;46.9
44075;BME280;60448;44.956;7.660;2023-08-12T06:15:00;99350;;;30.3;46.9
44075;BME280;60448;44.956;7.660;2023-08-12T06:20:00;99360;;;30.2;47.1
44075;BME280;60448;44.956;7.660;2023-08-12T06:25:00;99360;;;30.2;47.1
44075;BME280;60448;44.956;7.660;2023-08-12T06:30:00;99360;;;30.2;47.1
44075;BME280;60448;44.956;7.660;2023-08-12T06:35:00;99360;;;30.2;47.0
44075;BME280;60448;44.956;7.660;2023-08-12T06:40:00;99350;;;30.2;47.0
44075;BME280;60448;44.956;7.660;2023-08-12T06:45:00;99350;;;30.2;47.0
44075;BME280;60448;44.956;7.660;2023-08-12T06:50:00;99350;;;30.2;47.0
44075;BME280;60448;44.956;7.660;2023-08-12T06:55:00;99350;;;30.2;47.0
44075;BME280;60448;44.956;7.660;2023-08-12T07:00:00;99350;;;30.2;47.0
44075;BME280;60448;44.956;7.660;2023-08-12T07:05:00;99350;;;30.2;47.0
44075;BME280;60448;44.956;7.660;2023-08-12T07:10:00;99350;;;30.2;47.0
44075;BME280;60448;44.956;7.660;2023-08-12T07:15:00;99350;;;30.2;47.0
44075;BME280;60448;44.956;7.660;2023-08-12T07:20:00;99350;;;30.2;47.0
44075;BME280;60448;44.956;7.660;2023-08-12T07:25:00;99350;;;30.2;46.9
44075;BME280;60448;44.956;7.660;2023-08-12T07:30:00;99350;;;30.2;46.9
44075;BME280;60448;44.956;7.660;2023-08-12T07:35:00;99350;;;30.2;46.9
44075;BME280;60448;44.956;7.660;2023-08-12T07:40:00;99340;;;30.2;47.2
44075;BME280;60448;44.956;7.660;2023-08-12T07:45:00;99340;;;30.2;47.2
44075;BME280;60448;44.956;7.660;2023-08-12T07:50:00;99340;;;30.2;47.2
44075;BME280;60448;44.956;7.660;2023-08-12T07:55:00;99330;;;30.1;47.7
44075;BME280;60448;44.956;7.660;2023-08-12T08:00:00;99340;;;30.1;47.7
44075;BME280;60448;44.956;7.660;2023-08-12T08:05:00;99340;;;30.1;47.7
44075;BME280;60448;44.956;7.660;2023-08-12T08:10:00;99330;;;30.0;48.1
44075;BME280;60448;44.956;7.660;2023-08-12T08:15:00;99330;;;30.0;48.0
44075;BME280;60448;44.956;7.660;2023-08-12T08:20:00;99330;;;30.0;48.0
44075;BME280;60448;44.956;7.660;2023-08-12T08:25:00;99330;;;30.0;48.0
44075;BME280;60448;44.956;7.660;2023-08-12T08:30:00;99320;;;30.0;48.0
44075;BME280;60448;44.956;7.660;2023-08-12T08:35:00;99320;;;30.0;48.0
44075;BME280;60448;44.956;7.660;2023-08-12T08:40:00;99320;;;30.0;48.0
44075;BME280;60448;44.956;7.660;2023-08-12T08:45:00;99310;;;30.0;47.6
44075;BME280;60448;44.956;7.660;2023-08-12T08:50:00;99310;;;30.0;47.6
44075;BME280;60448;44.956;7.660;2023-08-12T08:55:00;99310;;;30.0;47.6
44075;BME280;60448;44.956;7.660;2023-08-12T09:00:00;99300;;;30.0;47.7
44075;BME280;60448;44.956;7.660;2023-08-12T09:05:01;99300;;;30.0;47.7
44075;BME280;60448;44.956;7.660;2023-08-12T09:10:00;99300;;;30.0;47.7
44075;BME280;60448;44.956;7.660;2023-08-12T09:15:00;99300;;;30.0;47.5
44075;BME280;60448;44.956;7.660;2023-08-12T09:20:00;0;;;unavailable;unavailable
44075;BME280;60448;44.956;7.660;2023-08-12T09:25:00;0;;;unavailable;unavailable
44075;BME280;60448;44.956;7.660;2023-08-12T09:30:02;0;;;unavailable;unavailable
44075;BME280;60448;44.956;7.660;2023-08-12T09:35:00;0;;;unavailable;unavailable
44075;BME280;60448;44.956;7.660;2023-08-12T09:40:00;0;;;unavailable;unavailable
44075;BME280;60448;44.956;7.660;2023-08-12T09:45:00;0;;;unavailable;unavailable
44075;BME280;60448;44.956;7.660;2023-08-12T09:50:00;0;;;unavailable;unavailable
44075;BME280;60448;44.956;7.660;2023-08-12T09:55:00;0;;;unavailable;unavailable
44075;BME280;60448;44.956;7.660;2023-08-12T10:00:00;0;;;unavailable;unavailable
44075;BME280;60448;44.956;7.660;2023-08-12T10:05:00;0;;;unavailable;unavailable
44075;BME280;60448;44.956;7.660;2023-08-12T10:10:00;0;;;unavailable;unavailable
44075;BME280;60448;44.956;7.660;2023-08-12T10:15:00;0;;;unavailable;unavailable
44075;BME280;60448;44.956;7.660;2023-08-12T10:20:01;0;;;unavailable;unavailable
44075;BME280;60448;44.956;7.660;2023-08-12T10:25:01;0;;;unavailable;unavailable
44075;BME280;60448;44.956;7.660;2023-08-12T10:30:04;0;;;unavailable;unavailable
44075;BME280;60448;44.956;7.660;2023-08-12T10:35:00;0;;;unavailable;unavailable
44075;BME280;60448;44.956;7.660;2023-08-12T10:40:04;0;;;unavailable;unavailable
44075;BME280;60448;44.956;7.660;2023-08-12T10:45:03;0;;;unavailable;unavailable
44075;BME280;60448;44.956;7.660;2023-08-12T10:50:01;0;;;unavailable;unavailable
44075;BME280;60448;44.956;7.660;2023-08-12T11:00:00;0;;;unavailable;unavailable
44075;BME280;60448;44.956;7.660;2023-08-12T11:05:02;0;;;unavailable;unavailable
44075;BME280;60448;44.956;7.660;2023-08-12T11:10:04;0;;;unavailable;unavailable
44075;BME280;60448;44.956;7.660;2023-08-12T11:15:01;0;;;unavailable;unavailable
44075;BME280;60448;44.956;7.660;2023-08-12T11:20:00;0;;;unavailable;unavailable
44075;BME280;60448;44.956;7.660;2023-08-12T11:25:00;0;;;unavailable;unavailable
44075;BME280;60448;44.956;7.660;2023-08-12T11:30:00;0;;;unavailable;unavailable
44075;BME280;60448;44.956;7.660;2023-08-12T11:35:00;0;;;unavailable;unavailable
44075;BME280;60448;44.956;7.660;2023-08-12T11:40:01;0;;;unavailable;unavailable
44075;BME280;60448;44.956;7.660;2023-08-12T11:45:00;0;;;unavailable;unavailable
44075;BME280;60448;44.956;7.660;2023-08-12T11:50:02;0;;;unavailable;unavailable
44075;BME280;60448;44.956;7.660;2023-08-12T11:55:00;0;;;unavailable;unavailable
44075;BME280;60448;44.956;7.660;2023-08-12T12:00:00;0;;;unavailable;unavailable
44075;BME280;60448;44.956;7.660;2023-08-12T12:05:04;0;;;unavailable;unavailable
44075;BME280;60448;44.956;7.660;2023-08-12T12:10:00;0;;;unavailable;unavailable
44075;BME280;60448;44.956;7.660;2023-08-12T12:15:00;0;;;unavailable;unavailable
44075;BME280;60448;44.956;7.660;2023-08-12T12:20:00;0;;;unavailable;unavailable
44075;BME280;60448;44.956;7.660;2023-08-12T12:25:04;0;;;unavailable;unavailable
44075;BME280;60448;44.956;7.660;2023-08-12T12:30:00;0;;;unavailable;unavailable
44075;BME280;60448;44.956;7.660;2023-08-12T12:35:00;0;;;unavailable;unavailable
44075;BME280;60448;44.956;7.660;2023-08-12T12:40:00;0;;;unavailable;unavailable
44075;BME280;60448;44.956;7.660;2023-08-12T12:45:00;0;;;unavailable;unavailable
44075;BME280;60448;44.956;7.660;2023-08-12T12:50:00;0;;;unavailable;unavailable
44075;BME280;60448;44.956;7.660;2023-08-12T12:55:00;0;;;unavailable;unavailable
44075;BME280;60448;44.956;7.660;2023-08-12T13:00:00;0;;;unavailable;unavailable
44075;BME280;60448;44.956;7.660;2023-08-12T13:05:00;0;;;unavailable;unavailable
44075;BME280;60448;44.956;7.660;2023-08-12T13:10:00;0;;;unavailable;unavailable
44075;BME280;60448;44.956;7.660;2023-08-12T13:15:00;0;;;unavailable;unavailable
44075;BME280;60448;44.956;7.660;2023-08-12T13:20:00;0;;;unavailable;unavailable
44075;BME280;60448;44.956;7.660;2023-08-12T13:25:00;0;;;unavailable;unavailable
44075;BME280;60448;44.956;7.660;2023-08-12T13:30:00;0;;;unavailable;unavailable
44075;BME280;60448;44.956;7.660;2023-08-12T13:35:00;0;;;unavailable;unavailable
44075;BME280;60448;44.956;7.660;2023-08-12T13:40:00;0;;;unavailable;unavailable
44075;BME280;60448;44.956;7.660;2023-08-12T13:45:00;0;;;unavailable;unavailable
44075;BME280;60448;44.956;7.660;2023-08-12T13:50:00;0;;;unavailable;unavailable
44075;BME280;60448;44.956;7.660;2023-08-12T13:55:00;0;;;unavailable;unavailable
44075;BME280;60448;44.956;7.660;2023-08-12T14:00:00;0;;;unavailable;unavailable
44075;BME280;60448;44.956;7.660;2023-08-12T14:05:00;0;;;unavailable;unavailable
44075;BME280;60448;44.956;7.660;2023-08-12T14:10:00;0;;;unavailable;unavailable
44075;BME280;60448;44.956;7.660;2023-08-12T14:15:00;0;;;unavailable;unavailable
44075;BME280;60448;44.956;7.660;2023-08-12T14:20:00;99020;;;30.9;47.6
44075;BME280;60448;44.956;7.660;2023-08-12T14:25:00;99020;;;30.9;47.6
44075;BME280;60448;44.956;7.660;2023-08-12T14:30:00;99020;;;30.9;47.6
44075;BME280;60448;44.956;7.660;2023-08-12T14:35:00;99000;;;31.0;47.2
44075;BME280;60448;44.956;7.660;2023-08-12T14:40:00;99000;;;31.0;47.2
44075;BME280;60448;44.956;7.660;2023-08-12T14:45:00;99000;;;31.0;47.2
44075;BME280;60448;44.956;7.660;2023-08-12T14:50:00;99000;;;31.2;47.4
44075;BME280;60448;44.956;7.660;2023-08-12T15:00:01;0;;;unavailable;unavailable
44075;BME280;60448;44.956;7.660;2023-08-12T15:05:00;98970;;;31.4;47.6
44075;BME280;60448;44.956;7.660;2023-08-12T15:10:00;98970;;;31.4;48.0
44075;BME280;60448;44.956;7.660;2023-08-12T15:15:01;98970;;;31.4;48.0
44075;BME280;60448;44.956;7.660;2023-08-12T15:20:04;98970;;;31.4;48.0
44075;BME280;60448;44.956;7.660;2023-08-12T15:30:00;98970;;;31.4;48.0
44075;BME280;60448;44.956;7.660;2023-08-12T15:40:07;98970;;;31.5;48.4
44075;BME280;60448;44.956;7.660;2023-08-12T15:45:00;98970;;;31.5;48.4
44075;BME280;60448;44.956;7.660;2023-08-12T15:55:04;98950;;;31.4;49.1
44075;BME280;60448;44.956;7.660;2023-08-12T16:00:01;98950;;;31.4;49.1
44075;BME280;60448;44.956;7.660;2023-08-12T16:20:00;0;;;unavailable;unavailable
44075;BME280;60448;44.956;7.660;2023-08-12T16:25:00;0;;;unavailable;unavailable
44075;BME280;60448;44.956;7.660;2023-08-12T16:30:00;98920;;;31.4;49.3
44075;BME280;60448;44.956;7.660;2023-08-12T16:35:00;98920;;;31.4;49.3
44075;BME280;60448;44.956;7.660;2023-08-12T16:40:00;98920;;;31.4;49.3
44075;BME280;60448;44.956;7.660;2023-08-12T16:45:00;98900;;;31.4;49.1
44075;BME280;60448;44.956;7.660;2023-08-12T16:50:00;98900;;;31.4;49.1
44075;BME280;60448;44.956;7.660;2023-08-12T16:55:00;98900;;;31.4;49.1
44075;BME280;60448;44.956;7.660;2023-08-12T17:00:00;98910;;;31.4;49.3
44075;BME280;60448;44.956;7.660;2023-08-12T17:05:00;98910;;;31.4;49.3
44075;BME280;60448;44.956;7.660;2023-08-12T17:10:00;98910;;;31.4;49.3
44075;BME280;60448;44.956;7.660;2023-08-12T17:15:00;98900;;;31.4;49.6
44075;BME280;60448;44.956;7.660;2023-08-12T17:20:00;98900;;;31.4;49.6
44075;BME280;60448;44.956;7.660;2023-08-12T17:25:00;98900;;;31.4;49.6
44075;BME280;60448;44.956;7.660;2023-08-12T17:30:00;98930;;;31.5;49.5
44075;BME280;60448;44.956;7.660;2023-08-12T17:35:00;98920;;;31.5;49.4
44075;BME280;60448;44.956;7.660;2023-08-12T17:40:00;98920;;;31.5;49.4
44075;BME280;60448;44.956;7.660;2023-08-12T17:45:00;98920;;;31.5;49.4
44075;BME280;60448;44.956;7.660;2023-08-12T17:50:00;98950;;;31.6;49.3
44075;BME280;60448;44.956;7.660;2023-08-12T17:55:00;98950;;;31.6;49.3
44075;BME280;60448;44.956;7.660;2023-08-12T18:00:00;98950;;;31.6;49.3
44075;BME280;60448;44.956;7.660;2023-08-12T18:05:00;98950;;;31.7;48.6
44075;BME280;60448;44.956;7.660;2023-08-12T18:10:00;98950;;;31.7;48.6
44075;BME280;60448;44.956;7.660;2023-08-12T18:15:00;98950;;;31.7;48.6
44075;BME280;60448;44.956;7.660;2023-08-12T18:20:00;98970;;;31.7;48.1
44075;BME280;60448;44.956;7.660;2023-08-12T18:25:00;98970;;;31.7;48.1
44075;BME280;60448;44.956;7.660;2023-08-12T18:30:00;98970;;;31.7;48.1
44075;BME280;60448;44.956;7.660;2023-08-12T18:35:00;98990;;;31.7;47.8
44075;BME280;60448;44.956;7.660;2023-08-12T18:40:00;98990;;;31.7;47.8
44075;BME280;60448;44.956;7.660;2023-08-12T18:45:00;98990;;;31.7;47.8
44075;BME280;60448;44.956;7.660;2023-08-12T18:50:00;99020;;;31.7;47.7
44075;BME280;60448;44.956;7.660;2023-08-12T18:55:00;99020;;;31.7;47.7
44075;BME280;60448;44.956;7.660;2023-08-12T19:00:00;99020;;;31.7;47.7
44075;BME280;60448;44.956;7.660;2023-08-12T19:05:01;99020;;;31.7;47.7
44075;BME280;60448;44.956;7.660;2023-08-12T19:10:00;99040;;;31.7;47.6
44075;BME280;60448;44.956;7.660;2023-08-12T19:15:00;99040;;;31.7;47.6
44075;BME280;60448;44.956;7.660;2023-08-12T19:20:00;99040;;;31.7;47.6
44075;BME280;60448;44.956;7.660;2023-08-12T19:25:01;99060;;;31.7;47.6
44075;BME280;60448;44.956;7.660;2023-08-12T19:30:00;99060;;;31.7;47.6
44075;BME280;60448;44.956;7.660;2023-08-12T19:35:00;99060;;;31.7;47.6
44075;BME280;60448;44.956;7.660;2023-08-12T19:40:00;99060;;;31.7;47.6
44075;BME280;60448;44.956;7.660;2023-08-12T19:45:00;99060;;;31.7;47.6
44075;BME280;60448;44.956;7.660;2023-08-12T19:50:00;99060;;;31.7;47.6
44075;BME280;60448;44.956;7.660;2023-08-12T19:55:00;99070;;;31.7;47.6
44075;BME280;60448;44.956;7.660;2023-08-12T20:00:00;99070;;;31.7;47.6
44075;BME280;60448;44.956;7.660;2023-08-12T20:05:00;99070;;;31.7;47.6
44075;BME280;60448;44.956;7.660;2023-08-12T20:10:00;99090;;;31.7;47.7
44075;BME280;60448;44.956;7.660;2023-08-12T20:15:00;99090;;;31.7;47.7
44075;BME280;60448;44.956;7.660;2023-08-12T20:20:00;99090;;;31.7;47.7
44075;BME280;60448;44.956;7.660;2023-08-12T20:25:00;99100;;;31.7;47.8
44075;BME280;60448;44.956;7.660;2023-08-12T20:30:00;99100;;;31.7;47.7
44075;BME280;60448;44.956;7.660;2023-08-12T20:35:00;99100;;;31.7;47.7
44075;BME280;60448;44.956;7.660;2023-08-12T20:40:00;99100;;;31.7;47.7
44075;BME280;60448;44.956;7.660;2023-08-12T20:45:00;99110;;;31.7;47.8
44075;BME280;60448;44.956;7.660;2023-08-12T20:50:00;99110;;;31.7;47.8
44075;BME280;60448;44.956;7.660;2023-08-12T20:55:00;99110;;;31.7;47.8
44075;BME280;60448;44.956;7.660;2023-08-12T21:00:00;99110;;;31.7;47.8
44075;BME280;60448;44.956;7.660;2023-08-12T21:05:00;99110;;;31.7;47.8
44075;BME280;60448;44.956;7.660;2023-08-12T21:10:00;99110;;;31.7;47.8
44075;BME280;60448;44.956;7.660;2023-08-12T21:15:00;99100;;;31.7;47.8
44075;BME280;60448;44.956;7.660;2023-08-12T21:20:00;99100;;;31.7;47.8
44075;BME280;60448;44.956;7.660;2023-08-12T21:25:00;99100;;;31.7;47.8
44075;BME280;60448;44.956;7.660;2023-08-12T21:30:00;99100;;;31.7;47.8
44075;BME280;60448;44.956;7.660;2023-08-12T21:35:00;99100;;;31.7;47.8
44075;BME280;60448;44.956;7.660;2023-08-12T21:40:00;99100;;;31.7;47.8
44075;BME280;60448;44.956;7.660;2023-08-12T21:45:00;99100;;;31.7;47.8
44075;BME280;60448;44.956;7.660;2023-08-12T21:50:00;99100;;;31.7;47.8
44075;BME280;60448;44.956;7.660;2023-08-12T21:55:00;99100;;;31.7;47.8
44075;BME280;60448;44.956;7.660;2023-08-12T22:00:00;99100;;;31.7;47.8
44075;BME280;60448;44.956;7.660;2023-08-12T22:05:00;99100;;;31.7;47.8
44075;BME280;60448;44.956;7.660;2023-08-12T22:10:00;99100;;;31.7;47.8
44075;BME280;60448;44.956;7.660;2023-08-12T22:15:00;99100;;;31.7;47.8
44075;BME280;60448;44.956;7.660;2023-08-12T22:20:00;99100;;;31.7;47.8
44075;BME280;60448;44.956;7.660;2023-08-12T22:25:00;99100;;;31.7;47.8
44075;BME280;60448;44.956;7.660;2023-08-12T22:30:00;99100;;;31.7;47.8
44075;BME280;60448;44.956;7.660;2023-08-12T22:35:00;99100;;;31.7;47.8
44075;BME280;60448;44.956;7.660;2023-08-12T22:40:00;99100;;;31.7;47.8
44075;BME280;60448;44.956;7.660;2023-08-12T22:45:00;99100;;;31.7;47.8
44075;BME280;60448;44.956;7.660;2023-08-12T22:50:00;99100;;;31.7;47.8
44075;BME280;60448;44.956;7.660;2023-08-12T22:55:00;99100;;;31.7;47.8
44075;BME280;60448;44.956;7.660;2023-08-12T23:00:00;99100;;;31.7;47.8
44075;BME280;60448;44.956;7.660;2023-08-12T23:05:00;99100;;;31.7;47.8
44075;BME280;60448;44.956;7.660;2023-08-12T23:10:00;99100;;;31.7;47.8
44075;BME280;60448;44.956;7.660;2023-08-12T23:15:00;99100;;;31.7;47.8
44075;BME280;60448;44.956;7.660;2023-08-12T23:20:00;99100;;;31.7;47.8
44075;BME280;60448;44.956;7.660;2023-08-12T23:25:00;99100;;;31.7;47.8
44075;BME280;60448;44.956;7.660;2023-08-12T23:30:00;99100;;;31.7;47.8
44075;BME280;60448;44.956;7.660;2023-08-12T23:35:00;99100;;;31.7;47.8
44075;BME280;60448;44.956;7.660;2023-08-12T23:40:00;99100;;;31.7;47.8
44075;BME280;60448;44.956;7.660;2023-08-12T23:45:00;99100;;;31.7;47.8
44075;BME280;60448;44.956;7.660;2023-08-12T23:50:00;99100;;;31.7;47.8
44075;BME280;60448;44.956;7.660;2023-08-12T23:55:00;99100;;;31.7;47.8
